createdAt,value
2022-10-09T00:01:20.939Z,66.09
2022-10-09T00:03:50.696Z,66.08
2022-10-09T00:06:21.759Z,66.12
2022-10-09T00:08:50.186Z,66.14
2022-10-09T00:11:27.409Z,66.19
2022-10-09T00:13:55.760Z,66.19
2022-10-09T00:16:24.541Z,66.14
2022-10-09T00:18:53.573Z,66.01
2022-10-09T00:21:24.386Z,66.14
2022-10-09T00:23:54.355Z,66.17
2022-10-09T00:26:22.791Z,66.23
2022-10-09T00:28:51.001Z,66.41
2022-10-09T00:31:18.742Z,66.24
2022-10-09T00:33:46.690Z,66.24
2022-10-09T00:36:17.136Z,66.27
2022-10-09T00:38:44.835Z,66.47
2022-10-09T00:41:30.952Z,66.34
2022-10-09T00:44:01.485Z,66.40
2022-10-09T00:46:39.770Z,66.50
2022-10-09T00:49:19.154Z,66.54
2022-10-09T00:51:49.220Z,66.59
2022-10-09T00:54:20.576Z,66.62
2022-10-09T00:56:49.788Z,66.78
2022-10-09T00:59:18.557Z,66.57
2022-10-09T01:01:46.518Z,66.60
2022-10-09T01:04:15.035Z,66.77
2022-10-09T01:06:58.551Z,66.92
2022-10-09T01:09:32.026Z,66.77
2022-10-09T01:12:13.681Z,67.04
2022-10-09T01:14:55.936Z,67.06
2022-10-09T01:17:43.369Z,67.06
2022-10-09T01:20:23.883Z,66.97
2022-10-09T01:23:16.942Z,66.88
2022-10-09T01:26:01.410Z,67.20
2022-10-09T01:28:30.471Z,67.04
2022-10-09T01:31:02.698Z,67.06
2022-10-09T01:33:32.493Z,67.19
2022-10-09T01:36:02.309Z,67.25
2022-10-09T01:38:31.081Z,67.33
2022-10-09T01:40:58.744Z,67.28
2022-10-09T01:43:26.238Z,67.30
2022-10-09T01:46:21.245Z,67.54
2022-10-09T01:49:26.840Z,67.62
2022-10-09T01:52:08.530Z,67.61
2022-10-09T01:54:56.407Z,67.43
2022-10-09T01:57:35.291Z,67.51
2022-10-09T02:00:09.950Z,67.60
2022-10-09T02:02:39.275Z,67.57
2022-10-09T02:05:09.391Z,67.44
2022-10-09T02:07:37.145Z,67.44
2022-10-09T02:10:07.039Z,67.50
2022-10-09T02:12:40.420Z,67.60
2022-10-09T02:15:09.601Z,67.75
2022-10-09T02:17:43.121Z,67.53
2022-10-09T02:20:24.878Z,67.61
2022-10-09T02:22:54.403Z,67.76
2022-10-09T02:25:22.214Z,67.54
2022-10-09T02:27:49.746Z,67.60
2022-10-09T02:30:18.086Z,67.60
2022-10-09T02:32:45.874Z,67.54
2022-10-09T02:35:13.552Z,67.56
2022-10-09T02:37:41.018Z,67.53
2022-10-09T02:40:10.906Z,67.47
2022-10-09T02:42:38.619Z,67.65
2022-10-09T02:45:06.941Z,67.64
2022-10-09T02:47:34.454Z,67.52
2022-10-09T02:50:01.927Z,67.57
2022-10-09T02:52:29.462Z,67.48
2022-10-09T02:54:56.942Z,67.48
2022-10-09T02:57:24.415Z,67.50
2022-10-09T02:59:51.901Z,67.50
2022-10-09T03:02:19.539Z,67.40
2022-10-09T03:04:47.270Z,67.31
2022-10-09T03:07:14.787Z,67.55
2022-10-09T03:09:42.850Z,67.50
2022-10-09T03:12:10.353Z,67.45
2022-10-09T03:14:37.816Z,67.62
2022-10-09T03:17:05.289Z,67.57
2022-10-09T03:19:32.773Z,67.53
2022-10-09T03:22:00.242Z,67.55
2022-10-09T03:24:27.854Z,67.66
2022-10-09T03:26:55.307Z,67.72
2022-10-09T03:29:22.829Z,67.63
2022-10-09T03:31:53.120Z,67.52
2022-10-09T03:34:21.008Z,67.51
2022-10-09T03:36:48.527Z,67.62
2022-10-09T03:39:16.092Z,67.73
2022-10-09T03:41:43.651Z,67.63
2022-10-09T03:44:11.117Z,67.61
2022-10-09T03:46:38.625Z,67.66
2022-10-09T03:49:06.184Z,67.79
2022-10-09T03:51:33.666Z,67.64
2022-10-09T03:54:01.188Z,67.62
2022-10-09T03:56:28.729Z,67.74
2022-10-09T03:58:56.250Z,67.59
2022-10-09T04:01:23.959Z,67.52
2022-10-09T04:03:51.484Z,67.74
2022-10-09T04:06:18.956Z,67.71
2022-10-09T04:08:46.449Z,67.71
2022-10-09T04:11:13.927Z,67.72
2022-10-09T04:13:41.443Z,67.72
2022-10-09T04:16:12.615Z,67.80
2022-10-09T04:18:41.902Z,67.90
2022-10-09T04:21:10.170Z,68.05
2022-10-09T04:23:37.716Z,68.00
2022-10-09T04:26:05.454Z,67.82
2022-10-09T04:28:33.248Z,67.92
2022-10-09T04:31:00.952Z,67.82
2022-10-09T04:33:28.802Z,67.88
2022-10-09T04:35:57.274Z,68.00
2022-10-09T04:38:25.318Z,67.97
2022-10-09T04:41:02.078Z,67.85
2022-10-09T04:43:30.361Z,67.96
2022-10-09T04:45:58.493Z,67.96
2022-10-09T04:48:26.029Z,68.13
2022-10-09T04:50:53.632Z,68.17
2022-10-09T04:53:21.142Z,68.17
2022-10-09T04:55:48.660Z,68.21
2022-10-09T04:58:16.132Z,68.08
2022-10-09T05:00:46.339Z,68.19
2022-10-09T05:03:13.973Z,68.13
2022-10-09T05:05:41.503Z,68.24
2022-10-09T05:08:08.999Z,68.41
2022-10-09T05:10:36.584Z,68.33
2022-10-09T05:13:04.300Z,68.26
2022-10-09T05:15:31.991Z,68.39
2022-10-09T05:17:59.473Z,68.25
2022-10-09T05:20:26.982Z,68.28
2022-10-09T05:22:54.660Z,68.41
2022-10-09T05:25:22.126Z,68.43
2022-10-09T05:27:49.636Z,68.51
2022-10-09T05:30:17.116Z,68.53
2022-10-09T05:32:44.597Z,68.50
2022-10-09T05:35:12.494Z,68.50
2022-10-09T05:37:39.997Z,68.31
2022-10-09T05:40:08.229Z,68.62
2022-10-09T05:42:35.786Z,68.47
2022-10-09T05:45:03.521Z,68.46
2022-10-09T05:47:31.041Z,68.37
2022-10-09T05:49:58.538Z,68.55
2022-10-09T05:52:26.011Z,68.54
2022-10-09T05:54:53.480Z,68.50
2022-10-09T05:57:20.998Z,68.38
2022-10-09T05:59:48.625Z,68.42
2022-10-09T06:02:16.260Z,68.52
2022-10-09T06:04:43.817Z,68.44
2022-10-09T06:07:11.452Z,68.59
2022-10-09T06:09:39.453Z,68.53
2022-10-09T06:12:07.041Z,68.43
2022-10-09T06:14:34.554Z,68.42
2022-10-09T06:17:02.111Z,68.56
2022-10-09T06:19:29.598Z,68.42
2022-10-09T06:21:57.069Z,68.64
2022-10-09T06:24:29.191Z,68.70
2022-10-09T06:26:58.362Z,68.53
2022-10-09T06:29:26.804Z,68.61
2022-10-09T06:31:54.329Z,68.62
2022-10-09T06:34:22.337Z,68.62
2022-10-09T06:36:50.049Z,68.57
2022-10-09T06:39:17.755Z,68.46
2022-10-09T06:41:45.313Z,68.55
2022-10-09T06:44:16.669Z,68.64
2022-10-09T06:46:49.412Z,68.48
2022-10-09T06:49:17.013Z,68.41
2022-10-09T06:51:44.609Z,68.55
2022-10-09T06:54:14.104Z,68.50
2022-10-09T06:56:41.700Z,68.41
2022-10-09T06:59:10.934Z,68.28
2022-10-09T07:01:38.546Z,68.42
2022-10-09T07:04:11.717Z,68.36
2022-10-09T07:06:44.009Z,68.20
2022-10-09T07:09:13.870Z,68.24
2022-10-09T07:11:44.673Z,68.33
2022-10-09T07:14:15.818Z,68.28
2022-10-09T07:16:46.632Z,68.44
2022-10-09T07:19:15.759Z,68.15
2022-10-09T07:21:45.751Z,68.24
2022-10-09T07:24:14.154Z,68.26
2022-10-09T07:26:44.564Z,68.17
2022-10-09T07:29:14.729Z,68.25
2022-10-09T07:31:42.404Z,68.21
2022-10-09T07:34:10.291Z,68.20
2022-10-09T07:36:37.891Z,68.02
2022-10-09T07:39:05.945Z,67.86
2022-10-09T07:41:34.306Z,68.07
2022-10-09T07:44:01.951Z,68.04
2022-10-09T07:46:33.224Z,67.97
2022-10-09T07:49:03.138Z,67.85
2022-10-09T07:51:31.728Z,67.97
2022-10-09T07:54:01.711Z,67.89
2022-10-09T07:56:32.330Z,67.84
2022-10-09T07:59:21.461Z,67.73
2022-10-09T08:01:48.954Z,67.75
2022-10-09T08:04:16.515Z,67.69
2022-10-09T08:06:44.026Z,67.87
2022-10-09T08:09:11.482Z,67.88
2022-10-09T08:11:40.840Z,67.80
2022-10-09T08:14:16.751Z,68.03
2022-10-09T08:16:48.157Z,68.01
2022-10-09T08:19:15.687Z,67.79
2022-10-09T08:21:43.278Z,67.88
2022-10-09T08:24:11.621Z,67.78
2022-10-09T08:26:39.189Z,67.74
2022-10-09T08:29:10.925Z,67.69
2022-10-09T08:31:38.596Z,67.79
2022-10-09T08:34:06.199Z,67.31
2022-10-09T08:36:33.704Z,67.47
2022-10-09T08:39:01.286Z,67.54
2022-10-09T08:41:46.714Z,67.40
2022-10-09T08:44:27.068Z,66.96
2022-10-09T08:46:57.816Z,66.78
2022-10-09T08:49:26.190Z,66.75
2022-10-09T08:51:56.002Z,67.37
2022-10-09T08:54:34.378Z,67.01
2022-10-09T08:57:06.597Z,66.51
2022-10-09T08:59:34.121Z,66.30
2022-10-09T09:02:23.785Z,66.23
2022-10-09T09:04:54.953Z,66.29
2022-10-09T09:07:38.636Z,66.31
2022-10-09T09:10:20.216Z,66.93
2022-10-09T09:12:53.983Z,66.39
2022-10-09T09:15:40.441Z,65.83
2022-10-09T09:18:34.096Z,65.89
2022-10-09T09:21:12.954Z,65.82
2022-10-09T09:23:44.343Z,66.25
2022-10-09T09:26:27.796Z,65.94
2022-10-09T09:29:01.857Z,65.89
2022-10-09T09:31:36.649Z,65.35
2022-10-09T09:34:04.272Z,65.23
2022-10-09T09:36:38.892Z,64.97
2022-10-09T09:42:01.604Z,65.00
2022-10-09T09:44:33.098Z,65.02
2022-10-09T09:47:00.789Z,64.51
2022-10-09T09:49:29.398Z,64.63
2022-10-09T09:52:00.886Z,64.80
2022-10-09T09:54:30.625Z,64.77
2022-10-09T09:57:12.979Z,64.43
2022-10-09T09:59:44.186Z,64.56
2022-10-09T10:02:13.550Z,64.11
2022-10-09T10:05:14.521Z,63.77
2022-10-09T10:07:42.215Z,63.95
2022-10-09T10:10:09.692Z,63.73
2022-10-09T10:12:42.200Z,64.17
2022-10-09T10:15:37.407Z,63.98
2022-10-09T10:18:12.867Z,63.85
2022-10-09T10:20:53.804Z,63.85
2022-10-09T10:23:25.313Z,63.26
2022-10-09T10:25:57.820Z,63.01
2022-10-09T10:28:32.276Z,63.19
2022-10-09T10:31:04.814Z,63.70
2022-10-09T10:33:36.309Z,63.64
2022-10-09T10:36:04.876Z,62.51
2022-10-09T10:38:46.421Z,61.89
2022-10-09T10:41:23.467Z,62.22
2022-10-09T10:43:58.072Z,62.20
2022-10-09T10:46:36.111Z,61.12
2022-10-09T10:49:04.443Z,60.24
2022-10-09T10:51:44.302Z,59.90
2022-10-09T10:54:48.047Z,59.37
2022-10-09T10:57:24.394Z,59.54
2022-10-09T11:00:10.995Z,58.89
2022-10-09T11:03:10.509Z,58.43
2022-10-09T11:06:10.074Z,59.25
2022-10-09T11:09:08.777Z,58.88
2022-10-09T11:11:46.593Z,58.98
2022-10-09T11:14:33.152Z,58.48
2022-10-09T11:17:16.509Z,58.75
2022-10-09T11:19:59.921Z,58.59
2022-10-09T11:22:43.468Z,58.09
2022-10-09T11:25:32.750Z,58.00
2022-10-09T11:28:22.373Z,57.70
2022-10-09T11:30:59.585Z,57.72
2022-10-09T11:33:29.812Z,58.01
2022-10-09T11:36:12.627Z,57.85
2022-10-09T11:38:46.014Z,57.81
2022-10-09T11:41:14.483Z,58.06
2022-10-09T11:43:58.017Z,57.55
2022-10-09T11:46:46.698Z,57.27
2022-10-09T11:49:56.653Z,56.08
2022-10-09T11:52:56.076Z,55.27
2022-10-09T11:55:27.383Z,55.39
2022-10-09T11:57:55.117Z,55.32
2022-10-09T12:00:32.386Z,54.97
2022-10-09T12:03:03.556Z,55.09
2022-10-09T12:05:49.114Z,54.82
2022-10-09T12:08:24.607Z,54.46
2022-10-09T12:11:07.212Z,54.62
2022-10-09T12:13:41.336Z,54.91
2022-10-09T12:16:29.191Z,55.00
2022-10-09T12:18:59.092Z,54.47
2022-10-09T12:21:32.693Z,54.55
2022-10-09T12:24:01.103Z,54.92
2022-10-09T12:26:30.023Z,55.10
2022-10-09T12:29:04.792Z,55.36
2022-10-09T12:31:36.979Z,55.22
2022-10-09T12:34:20.566Z,55.34
2022-10-09T12:36:48.101Z,55.12
2022-10-09T12:39:23.392Z,55.13
2022-10-09T12:41:54.499Z,54.67
2022-10-09T12:44:30.394Z,54.56
2022-10-09T12:47:03.817Z,54.47
2022-10-09T12:49:31.954Z,54.44
2022-10-09T12:52:00.759Z,54.47
2022-10-09T12:54:30.937Z,54.27
2022-10-09T12:57:00.549Z,54.53
2022-10-09T12:59:28.805Z,54.01
2022-10-09T13:02:00.190Z,53.56
2022-10-09T13:04:27.899Z,52.83
2022-10-09T13:06:56.958Z,52.57
2022-10-09T13:09:30.211Z,52.57
2022-10-09T13:12:04.588Z,52.05
2022-10-09T13:14:42.088Z,52.27
2022-10-09T13:20:03.727Z,52.54
2022-10-09T13:22:33.652Z,52.72
2022-10-09T13:25:02.837Z,51.26
2022-10-09T13:27:33.964Z,50.52
2022-10-09T13:30:01.667Z,50.19
2022-10-09T13:32:29.400Z,50.33
2022-10-09T13:34:58.204Z,50.44
2022-10-09T13:37:26.491Z,50.81
2022-10-09T13:39:55.704Z,50.28
2022-10-09T13:42:30.194Z,49.80
2022-10-09T13:44:58.337Z,49.93
2022-10-09T13:47:25.855Z,49.79
2022-10-09T13:49:53.389Z,49.55
2022-10-09T13:52:20.898Z,49.11
2022-10-09T13:54:48.460Z,48.63
2022-10-09T13:57:15.970Z,48.43
2022-10-09T13:59:43.560Z,48.06
2022-10-09T14:02:11.560Z,48.25
2022-10-09T14:04:39.360Z,48.63
2022-10-09T14:07:06.953Z,48.11
2022-10-09T14:09:34.516Z,47.67
2022-10-09T14:12:02.069Z,48.54
2022-10-09T14:14:29.607Z,48.20
2022-10-09T14:16:57.196Z,47.60
2022-10-09T14:19:27.621Z,47.66
2022-10-09T14:21:57.088Z,47.55
2022-10-09T14:24:25.567Z,47.77
2022-10-09T14:26:53.105Z,47.41
2022-10-09T14:29:20.689Z,47.19
2022-10-09T14:31:54.107Z,46.56
2022-10-09T14:34:22.044Z,46.22
2022-10-09T14:36:49.841Z,46.27
2022-10-09T14:39:17.363Z,45.45
2022-10-09T14:41:45.738Z,44.70
2022-10-09T14:44:13.418Z,44.50
2022-10-09T14:46:40.958Z,44.03
2022-10-09T14:49:08.560Z,44.50
2022-10-09T14:51:39.495Z,44.99
2022-10-09T14:54:09.541Z,45.30
2022-10-09T14:56:37.097Z,45.21
2022-10-09T14:59:08.486Z,45.53
2022-10-09T15:01:36.454Z,45.32
2022-10-09T15:04:05.433Z,44.70
2022-10-09T15:06:33.875Z,44.82
2022-10-09T15:09:04.823Z,43.97
2022-10-09T15:11:34.722Z,43.03
2022-10-09T15:14:03.216Z,43.83
2022-10-09T15:16:30.852Z,43.36
2022-10-09T15:18:58.812Z,42.91
2022-10-09T15:21:28.929Z,43.04
2022-10-09T15:23:59.092Z,43.04
2022-10-09T15:26:28.922Z,43.36
2022-10-09T15:28:56.919Z,43.60
2022-10-09T15:31:31.448Z,43.67
2022-10-09T15:34:01.550Z,43.84
2022-10-09T15:36:33.364Z,44.17
2022-10-09T15:39:05.459Z,44.23
2022-10-09T15:41:35.895Z,44.38
2022-10-09T15:44:06.742Z,44.63
2022-10-09T15:46:34.339Z,44.79
2022-10-09T15:49:01.872Z,44.86
2022-10-09T15:51:31.586Z,45.11
2022-10-09T15:54:01.154Z,45.28
2022-10-09T15:56:29.815Z,45.43
2022-10-09T15:58:58.932Z,45.73
2022-10-09T16:01:26.678Z,45.74
2022-10-09T16:03:54.411Z,45.87
2022-10-09T16:06:23.720Z,46.06
2022-10-09T16:08:56.057Z,46.28
2022-10-09T16:11:26.291Z,46.36
2022-10-09T16:13:56.220Z,46.56
2022-10-09T16:16:25.782Z,46.82
2022-10-09T16:18:54.909Z,46.92
2022-10-09T16:21:28.837Z,47.01
2022-10-09T16:24:05.563Z,47.03
2022-10-09T16:26:33.230Z,47.29
2022-10-09T16:29:00.852Z,47.31
2022-10-09T16:31:31.889Z,47.36
2022-10-09T16:33:59.389Z,47.62
2022-10-09T16:36:27.475Z,47.80
2022-10-09T16:38:57.030Z,47.81
2022-10-09T16:41:25.985Z,47.95
2022-10-09T16:43:55.729Z,48.06
2022-10-09T16:49:02.565Z,48.34
2022-10-09T16:51:35.391Z,48.31
2022-10-09T16:54:05.653Z,48.61
2022-10-09T16:56:36.951Z,48.88
2022-10-09T16:59:07.397Z,49.03
2022-10-09T17:01:40.265Z,48.90
2022-10-09T17:04:07.783Z,49.02
2022-10-09T17:06:35.538Z,49.15
2022-10-09T17:09:03.138Z,49.20
2022-10-09T17:11:30.831Z,49.38
2022-10-09T17:13:58.982Z,49.36
2022-10-09T17:16:31.124Z,49.68
2022-10-09T17:18:58.755Z,49.76
2022-10-09T17:21:30.959Z,49.89
2022-10-09T17:24:06.306Z,49.94
2022-10-09T17:26:34.777Z,50.13
2022-10-09T17:29:03.315Z,50.23
2022-10-09T17:31:31.098Z,50.35
2022-10-09T17:34:01.768Z,50.62
2022-10-09T17:36:35.614Z,50.72
2022-10-09T17:39:06.207Z,50.93
2022-10-09T17:41:34.767Z,51.00
2022-10-09T17:44:02.449Z,50.96
2022-10-09T17:46:30.686Z,51.27
2022-10-09T17:48:59.529Z,51.41
2022-10-09T17:51:30.311Z,51.58
2022-10-09T17:54:01.399Z,51.78
2022-10-09T17:56:30.353Z,51.73
2022-10-09T17:59:02.405Z,51.84
2022-10-09T18:01:30.720Z,52.08
2022-10-09T18:03:58.896Z,52.15
2022-10-09T18:06:27.206Z,52.19
2022-10-09T18:08:55.510Z,52.44
2022-10-09T18:11:25.645Z,52.37
2022-10-09T18:13:54.458Z,52.54
2022-10-09T18:16:35.210Z,52.69
2022-10-09T18:19:12.150Z,52.72
2022-10-09T18:21:43.707Z,53.05
2022-10-09T18:24:15.273Z,52.98
2022-10-09T18:26:42.902Z,53.12
2022-10-09T18:29:10.620Z,52.97
2022-10-09T18:31:38.501Z,53.31
2022-10-09T18:34:06.307Z,53.47
2022-10-09T18:36:34.966Z,53.49
2022-10-09T18:39:08.243Z,53.61
2022-10-09T18:41:36.348Z,53.59
2022-10-09T18:44:05.426Z,53.71
2022-10-09T18:46:40.614Z,53.75
2022-10-09T18:49:11.869Z,53.85
2022-10-09T18:51:42.299Z,53.93
2022-10-09T18:54:15.742Z,54.07
2022-10-09T18:56:46.227Z,54.15
2022-10-09T18:59:18.027Z,54.20
2022-10-09T19:01:45.546Z,54.25
2022-10-09T19:04:13.477Z,54.30
2022-10-09T19:06:41.002Z,54.46
2022-10-09T19:09:08.518Z,54.45
2022-10-09T19:11:36.119Z,54.38
2022-10-09T19:14:03.649Z,54.48
2022-10-09T19:16:33.216Z,54.71
2022-10-09T19:19:01.187Z,54.81
2022-10-09T19:21:28.727Z,55.03
2022-10-09T19:23:56.308Z,54.94
2022-10-09T19:26:23.824Z,55.11
2022-10-09T19:28:51.932Z,55.19
2022-10-09T19:31:19.455Z,55.29
2022-10-09T19:33:46.963Z,55.24
2022-10-09T19:36:14.784Z,55.29
2022-10-09T19:38:42.552Z,55.38
2022-10-09T19:41:13.692Z,55.33
2022-10-09T19:43:42.028Z,55.34
2022-10-09T19:46:14.254Z,55.52
2022-10-09T19:48:41.751Z,55.56
2022-10-09T19:51:14.239Z,55.57
2022-10-09T19:53:43.486Z,55.65
2022-10-09T19:56:18.360Z,55.74
2022-10-09T19:58:48.522Z,55.75
2022-10-09T20:01:19.507Z,55.83
2022-10-09T20:03:48.027Z,55.68
2022-10-09T20:06:15.553Z,55.93
2022-10-09T20:08:43.792Z,55.95
2022-10-09T20:11:11.959Z,56.06
2022-10-09T20:13:42.317Z,56.37
2022-10-09T20:16:13.072Z,56.34
2022-10-09T20:18:42.434Z,56.42
2022-10-09T20:21:13.041Z,56.42
2022-10-09T20:23:40.615Z,56.42
2022-10-09T20:26:16.623Z,56.59
2022-10-09T20:28:45.439Z,56.48
2022-10-09T20:31:19.466Z,56.48
2022-10-09T20:33:48.486Z,56.57
2022-10-09T20:36:28.743Z,56.61
2022-10-09T20:39:01.067Z,56.70
2022-10-09T20:41:30.472Z,56.80
2022-10-09T20:44:00.458Z,56.90
2022-10-09T20:46:30.105Z,57.05
2022-10-09T20:48:57.836Z,57.10
2022-10-09T20:51:26.161Z,56.94
2022-10-09T20:53:56.128Z,56.97
2022-10-09T20:56:26.261Z,57.09
2022-10-09T20:58:54.811Z,57.12
2022-10-09T21:01:22.888Z,57.06
2022-10-09T21:03:51.572Z,57.07
2022-10-09T21:06:21.322Z,57.29
2022-10-09T21:08:50.343Z,57.39
2022-10-09T21:11:19.266Z,57.32
2022-10-09T21:13:48.764Z,57.54
2022-10-09T21:16:23.052Z,57.37
2022-10-09T21:18:59.464Z,57.57
2022-10-09T21:21:29.606Z,57.52
2022-10-09T21:23:59.532Z,57.62
2022-10-09T21:26:28.394Z,57.69
2022-10-09T21:28:59.577Z,58.01
2022-10-09T21:31:29.672Z,57.84
2022-10-09T21:33:59.842Z,57.96
2022-10-09T21:36:55.848Z,58.00
2022-10-09T21:39:27.071Z,58.01
2022-10-09T21:41:55.985Z,57.98
2022-10-09T21:44:23.486Z,58.08
2022-10-09T21:46:51.000Z,58.06
2022-10-09T21:49:24.687Z,58.10
2022-10-09T21:51:52.801Z,58.22
2022-10-09T21:54:20.889Z,58.20
2022-10-09T21:56:48.580Z,58.18
2022-10-09T21:59:16.195Z,58.09
2022-10-09T22:01:43.764Z,58.33
2022-10-09T22:04:11.372Z,58.37
2022-10-09T22:06:41.044Z,58.48
2022-10-09T22:09:09.817Z,58.57
2022-10-09T22:11:37.539Z,58.48
2022-10-09T22:14:05.693Z,58.54
2022-10-09T22:16:33.177Z,58.65
2022-10-09T22:19:00.683Z,58.54
2022-10-09T22:21:28.335Z,58.64
2022-10-09T22:23:55.989Z,58.81
2022-10-09T22:26:23.454Z,58.65
2022-10-09T22:28:51.111Z,58.73
2022-10-09T22:31:19.866Z,58.88
2022-10-09T22:33:56.658Z,58.75
2022-10-09T22:36:27.540Z,58.80
2022-10-09T22:39:00.358Z,58.83
2022-10-09T22:41:29.402Z,58.86
2022-10-09T22:43:58.956Z,58.89
2022-10-09T22:46:32.998Z,59.00
2022-10-09T22:49:01.329Z,59.21
2022-10-09T22:51:29.839Z,59.10
2022-10-09T22:53:59.095Z,59.03
2022-10-09T22:56:32.849Z,59.30
2022-10-09T22:59:00.580Z,59.29
2022-10-09T23:01:32.875Z,59.29
2022-10-09T23:04:05.634Z,59.45
2022-10-09T23:06:33.210Z,59.46
2022-10-09T23:09:01.268Z,59.42
2022-10-09T23:11:28.744Z,59.39
2022-10-09T23:13:59.370Z,59.44
2022-10-09T23:16:28.784Z,59.53
2022-10-09T23:18:58.194Z,59.56
2022-10-09T23:21:27.247Z,59.64
2022-10-09T23:23:56.355Z,59.69
2022-10-09T23:26:29.032Z,59.80
2022-10-09T23:29:08.779Z,59.57
2022-10-09T23:31:36.768Z,59.70
2022-10-09T23:34:06.250Z,59.79
2022-10-09T23:36:34.632Z,59.65
2022-10-09T23:39:04.244Z,59.76
2022-10-09T23:41:32.151Z,59.82
2022-10-09T23:43:59.700Z,59.96
2022-10-09T23:46:29.970Z,59.87
2022-10-09T23:48:57.513Z,59.94
2022-10-09T23:51:27.071Z,59.93
2022-10-09T23:53:55.815Z,60.00
2022-10-09T23:56:27.402Z,59.96
2022-10-09T23:58:56.512Z,59.97
